createdAt,value
2018-03-26T08:40:31.003Z,7324.00
2018-03-26T08:41:30.979Z,7492.00
2018-03-26T08:42:31.094Z,6904.00
2018-03-26T08:43:31.029Z,7380.00
2018-03-26T08:44:31.041Z,7688.00
2018-03-26T08:45:31.064Z,6840.00
2018-03-26T08:46:31.095Z,7712.00
2018-03-26T08:47:31.107Z,7708.00
2018-03-26T08:48:31.136Z,7792.00
2018-03-26T08:49:31.161Z,6968.00
2018-03-26T08:50:31.171Z,7748.00
2018-03-26T08:51:31.193Z,6808.00
2018-03-26T08:52:31.280Z,7580.00
2018-03-26T08:53:31.271Z,7876.00
2018-03-26T08:54:31.253Z,7716.00
2018-03-26T08:55:31.276Z,7936.00
2018-03-26T08:56:31.295Z,8188.00
2018-03-26T08:57:31.316Z,8392.00
2018-03-26T08:58:31.341Z,8364.00
2018-03-26T08:59:31.360Z,8212.00
2018-03-26T09:00:31.379Z,8168.00
2018-03-26T09:01:31.402Z,8236.00
2018-03-26T09:02:31.421Z,8608.00
2018-03-26T09:03:31.442Z,8596.00
2018-03-26T09:04:31.520Z,8568.00
2018-03-26T09:05:31.482Z,8520.00
2018-03-26T09:06:31.497Z,8336.00
2018-03-26T09:07:31.522Z,7864.00
2018-03-26T09:08:31.539Z,8248.00
2018-03-26T09:09:31.560Z,8700.00
2018-03-26T09:10:31.580Z,8808.00
2018-03-26T09:11:31.603Z,8828.00
2018-03-26T09:12:31.621Z,8824.00
2018-03-26T09:13:31.640Z,8924.00
2018-03-26T09:14:31.670Z,8952.00
2018-03-26T09:15:31.688Z,9012.00
2018-03-26T09:16:31.754Z,9028.00
2018-03-26T09:17:31.800Z,9112.00
2018-03-26T09:18:31.749Z,9140.00
2018-03-26T09:19:31.764Z,9172.00
2018-03-26T09:20:31.783Z,9168.00
2018-03-26T09:21:31.805Z,9232.00
2018-03-26T09:22:31.884Z,9276.00
2018-03-26T09:23:31.854Z,9264.00
2018-03-26T09:24:31.865Z,9224.00
2018-03-26T09:25:31.886Z,9256.00
2018-03-26T09:26:31.906Z,9296.00
2018-03-26T09:27:31.926Z,9340.00
2018-03-26T09:28:31.997Z,9392.00
2018-03-26T09:29:31.967Z,9436.00
2018-03-26T09:30:31.987Z,9508.00
2018-03-26T09:31:32.010Z,9552.00
2018-03-26T09:32:32.026Z,9576.00
2018-03-26T09:33:32.056Z,9560.00
2018-03-26T09:34:32.120Z,9348.00
2018-03-26T09:35:32.100Z,9464.00
2018-03-26T09:36:32.118Z,9536.00
2018-03-26T09:37:32.131Z,9640.00
2018-03-26T09:38:32.159Z,9684.00
2018-03-26T09:39:32.175Z,9724.00
2018-03-26T09:40:32.315Z,9760.00
2018-03-26T09:41:32.216Z,9792.00
2018-03-26T09:42:32.236Z,9776.00
2018-03-26T09:43:32.255Z,9836.00
2018-03-26T09:44:32.281Z,9844.00
2018-03-26T09:45:32.296Z,9880.00
2018-03-26T09:46:32.369Z,9892.00
2018-03-26T09:47:32.346Z,9932.00
2018-03-26T09:48:32.364Z,9936.00
2018-03-26T09:49:32.385Z,9960.00
2018-03-26T09:50:32.404Z,9996.00
2018-03-26T09:51:32.428Z,10040.00
2018-03-26T09:52:32.492Z,10020.00
2018-03-26T09:53:32.465Z,9372.00
2018-03-26T09:54:32.484Z,10068.00
2018-03-26T09:55:32.505Z,10060.00
2018-03-26T09:56:32.524Z,10092.00
2018-03-26T09:57:32.556Z,10108.00
2018-03-26T09:58:32.567Z,10144.00
2018-03-26T09:59:32.589Z,10124.00
2018-03-26T10:00:32.609Z,10216.00
2018-03-26T10:01:32.639Z,10236.00
2018-03-26T10:02:32.652Z,10244.00
2018-03-26T10:03:32.672Z,10248.00
2018-03-26T10:04:32.748Z,10308.00
2018-03-26T10:05:32.716Z,10336.00
2018-03-26T10:06:32.737Z,10352.00
2018-03-26T10:07:32.783Z,10396.00
2018-03-26T10:08:32.784Z,10416.00
2018-03-26T10:09:32.819Z,10420.00
2018-03-26T10:10:32.832Z,10448.00
2018-03-26T10:11:32.839Z,10440.00
2018-03-26T10:12:32.872Z,10488.00
2018-03-26T10:13:32.881Z,10108.00
2018-03-26T10:14:32.904Z,10548.00
2018-03-26T10:15:32.934Z,10540.00
2018-03-26T10:16:32.944Z,10432.00
2018-03-26T10:17:32.978Z,10496.00
2018-03-26T10:18:32.991Z,10564.00
2018-03-26T10:19:33.022Z,10456.00
2018-03-26T10:20:33.034Z,10444.00
2018-03-26T10:21:33.056Z,10496.00
2018-03-26T10:22:33.078Z,10496.00
2018-03-26T10:23:33.107Z,10536.00
2018-03-26T10:24:33.118Z,10476.00
2018-03-26T10:25:33.140Z,10564.00
2018-03-26T10:26:33.163Z,10556.00
2018-03-26T10:27:33.184Z,10560.00
2018-03-26T10:28:33.202Z,10608.00
2018-03-26T10:29:33.226Z,10620.00
2018-03-26T10:30:33.255Z,10540.00
2018-03-26T10:31:33.267Z,10576.00
2018-03-26T10:32:33.300Z,10640.00
2018-03-26T10:33:33.313Z,10692.00
2018-03-26T10:34:33.341Z,10616.00
2018-03-26T10:35:33.356Z,10640.00
2018-03-26T10:36:33.424Z,10672.00
2018-03-26T10:37:33.403Z,10708.00
2018-03-26T10:38:33.467Z,10700.00
2018-03-26T10:39:33.458Z,10708.00
2018-03-26T10:40:33.518Z,10776.00
2018-03-26T10:41:33.493Z,10780.00
2018-03-26T10:43:33.546Z,10848.00
2018-03-26T10:44:33.572Z,10836.00
2018-03-26T10:45:33.577Z,10840.00
2018-03-26T10:46:33.602Z,10880.00
2018-03-26T10:47:33.623Z,10880.00
2018-03-26T10:48:33.642Z,10912.00
2018-03-26T10:49:33.666Z,10896.00
2018-03-26T10:50:33.687Z,10876.00
2018-03-26T10:51:33.719Z,10916.00
2018-03-26T10:52:33.735Z,10928.00
2018-03-26T10:53:33.758Z,10856.00
2018-03-26T10:54:33.779Z,10888.00
2018-03-26T10:55:33.801Z,10624.00
2018-03-26T10:56:33.833Z,10932.00
2018-03-26T10:57:33.846Z,10940.00
2018-03-26T10:58:33.924Z,10840.00
2018-03-26T10:59:33.901Z,10980.00
2018-03-26T11:00:33.926Z,10924.00
2018-03-26T11:01:33.947Z,10908.00
2018-03-26T11:02:33.970Z,10956.00
2018-03-26T11:03:33.988Z,10960.00
2018-03-26T11:04:34.002Z,10952.00
2018-03-26T11:05:34.025Z,11008.00
2018-03-26T11:06:34.057Z,11044.00
2018-03-26T11:07:34.069Z,11024.00
2018-03-26T11:08:34.103Z,11028.00
2018-03-26T11:09:34.118Z,11020.00
2018-03-26T11:10:34.187Z,11056.00
2018-03-26T11:11:34.170Z,11028.00
2018-03-26T11:12:34.186Z,11072.00
2018-03-26T11:13:34.206Z,11080.00
2018-03-26T11:14:34.232Z,11072.00
2018-03-26T11:15:34.257Z,11092.00
2018-03-26T11:16:34.277Z,10492.00
2018-03-26T11:17:34.297Z,11100.00
2018-03-26T11:18:34.319Z,11112.00
2018-03-26T11:19:34.344Z,11160.00
2018-03-26T11:20:34.367Z,11176.00
2018-03-26T11:21:34.398Z,11156.00
2018-03-26T11:22:34.472Z,11164.00
2018-03-26T11:23:34.438Z,11160.00
2018-03-26T11:24:34.459Z,11192.00
2018-03-26T11:25:34.483Z,11208.00
2018-03-26T11:26:34.506Z,11208.00
2018-03-26T11:27:34.530Z,11240.00
2018-03-26T11:28:34.607Z,11268.00
2018-03-26T11:29:34.576Z,11220.00
2018-03-26T11:30:34.599Z,11136.00
2018-03-26T11:31:34.621Z,10924.00
2018-03-26T11:32:34.655Z,10616.00
2018-03-26T11:33:34.668Z,10908.00
2018-03-26T11:34:34.701Z,11180.00
2018-03-26T11:35:34.724Z,11364.00
2018-03-26T11:36:34.742Z,11360.00
2018-03-26T11:37:34.764Z,11324.00
2018-03-26T11:38:34.787Z,11340.00
2018-03-26T11:39:34.810Z,11352.00
2018-03-26T11:40:34.891Z,11324.00
2018-03-26T11:41:34.857Z,11320.00
2018-03-26T11:42:34.889Z,11328.00
2018-03-26T11:43:34.906Z,11368.00
2018-03-26T11:44:34.928Z,11468.00
2018-03-26T11:45:34.951Z,11324.00
2018-03-26T11:46:35.026Z,11376.00
2018-03-26T11:47:34.998Z,11108.00
2018-03-26T11:48:35.032Z,11244.00
2018-03-26T11:49:35.059Z,11280.00
2018-03-26T11:50:35.072Z,11288.00
2018-03-26T11:51:35.106Z,11296.00
2018-03-26T11:52:35.129Z,11268.00
2018-03-26T11:53:35.142Z,11088.00
2018-03-26T11:54:35.169Z,11212.00
2018-03-26T11:55:35.192Z,11312.00
2018-03-26T11:56:35.211Z,11396.00
2018-03-26T11:57:35.240Z,11384.00
2018-03-26T11:58:35.270Z,11400.00
2018-03-26T11:59:35.285Z,11448.00
2018-03-26T12:00:35.307Z,11448.00
2018-03-26T12:01:35.332Z,11460.00
2018-03-26T12:02:35.356Z,11480.00
2018-03-26T12:03:35.383Z,11320.00
2018-03-26T12:04:35.407Z,11296.00
2018-03-26T12:05:35.429Z,10896.00
2018-03-26T12:06:35.452Z,11164.00
2018-03-26T12:07:35.485Z,11540.00
2018-03-26T12:08:35.501Z,11508.00
2018-03-26T12:09:35.522Z,11372.00
2018-03-26T12:10:35.606Z,11424.00
2018-03-26T12:11:35.582Z,11436.00
2018-03-26T12:12:35.599Z,11420.00
2018-03-26T12:13:35.621Z,11452.00
2018-03-26T12:14:35.685Z,11128.00
2018-03-26T12:15:35.665Z,11444.00
2018-03-26T12:16:35.694Z,11404.00
2018-03-26T12:17:35.719Z,11404.00
2018-03-26T12:18:35.737Z,11408.00
2018-03-26T12:19:35.763Z,11348.00
2018-03-26T12:20:35.787Z,11336.00
2018-03-26T12:28:36.028Z,11648.00
2018-03-26T12:29:36.003Z,11600.00
2018-03-26T12:30:36.025Z,11620.00
2018-03-26T12:31:36.050Z,11604.00
2018-03-26T12:32:36.072Z,11592.00
2018-03-26T12:33:36.096Z,11556.00
2018-03-26T12:34:36.176Z,11528.00
2018-03-26T12:35:36.151Z,11556.00
2018-03-26T12:36:36.168Z,11564.00
2018-03-26T12:37:36.192Z,11420.00
2018-03-26T12:38:36.222Z,11528.00
2018-03-26T12:39:36.247Z,11540.00
2018-03-26T12:40:39.267Z,11528.00
2018-03-26T12:41:36.290Z,11500.00
2018-03-26T12:42:36.310Z,11460.00
2018-03-26T13:28:57.114Z,11020.00
2018-03-26T13:35:49.749Z,10988.00
2018-03-26T13:36:49.712Z,11056.00
2018-03-26T13:37:49.738Z,11044.00
2018-03-26T13:38:49.770Z,11040.00
2018-03-26T13:39:49.785Z,11052.00
2018-03-26T13:40:49.811Z,10868.00
2018-03-26T13:41:49.893Z,11076.00
2018-03-26T13:42:49.862Z,11016.00
2018-03-26T13:43:49.886Z,11088.00
2018-03-26T13:44:49.904Z,11116.00
2018-03-26T13:45:49.928Z,11032.00
2018-03-26T13:46:49.951Z,10980.00
2018-03-26T13:47:50.034Z,10800.00
2018-03-26T13:48:50.001Z,10972.00
2018-03-26T13:49:50.021Z,11096.00
2018-03-26T13:50:49.845Z,11108.00
2018-03-26T13:51:50.079Z,11084.00
2018-03-26T13:52:50.143Z,11044.00
2018-03-26T13:53:50.168Z,11060.00
2018-03-26T13:54:50.143Z,11068.00
2018-03-26T13:55:50.182Z,10996.00
2018-03-26T13:56:50.185Z,10876.00
2018-03-26T13:57:50.209Z,10800.00
2018-03-26T13:58:50.237Z,10832.00
2018-03-26T13:59:50.309Z,10780.00
2018-03-26T14:00:50.279Z,10800.00
2018-03-26T14:01:50.306Z,10712.00
2018-03-26T14:02:50.336Z,10576.00
2018-03-26T14:03:50.361Z,10684.00
2018-03-26T14:04:50.427Z,10752.00
2018-03-26T14:05:50.453Z,10680.00
2018-03-26T14:06:50.420Z,10720.00
2018-03-26T14:07:50.453Z,10812.00
2018-03-26T14:08:50.477Z,10900.00
2018-03-26T14:09:50.492Z,10992.00
2018-03-26T14:10:50.521Z,11128.00
2018-03-26T14:11:50.599Z,11380.00
2018-03-26T14:12:50.562Z,10900.00
2018-03-26T14:13:50.596Z,10696.00
2018-03-26T14:14:50.615Z,10636.00
2018-03-26T14:15:50.632Z,10636.00
2018-03-26T14:16:50.666Z,10428.00
2018-03-26T14:17:50.728Z,10056.00
2018-03-26T14:18:50.702Z,10212.00
2018-03-26T14:19:50.534Z,10028.00
2018-03-26T14:20:50.756Z,10024.00
2018-03-26T14:21:50.591Z,9980.00
2018-03-26T14:22:50.841Z,10144.00
2018-03-26T14:23:50.869Z,10092.00
2018-03-26T14:24:50.842Z,10088.00
2018-03-26T14:25:50.866Z,10092.00
2018-03-26T14:26:50.892Z,10076.00
2018-03-26T14:27:50.914Z,10064.00
2018-03-26T14:28:51.014Z,10048.00
2018-03-26T14:29:51.013Z,9984.00
2018-03-26T14:30:50.995Z,10016.00
2018-03-26T14:31:51.019Z,10012.00
2018-03-26T14:32:51.030Z,10032.00
2018-03-26T14:33:51.054Z,9964.00
2018-03-26T14:34:51.130Z,9980.00
2018-03-26T14:35:51.153Z,9880.00
2018-03-26T14:36:51.128Z,9856.00
2018-03-26T14:37:51.158Z,9824.00
2018-03-26T14:38:51.181Z,9608.00
2018-03-26T14:39:51.195Z,9776.00
2018-03-26T14:40:51.219Z,9760.00
2018-03-26T14:41:51.290Z,9756.00
2018-03-26T14:42:51.264Z,9700.00
2018-03-26T14:43:51.290Z,9700.00
2018-03-26T14:44:51.319Z,9644.00
2018-03-26T14:45:51.332Z,9560.00
2018-03-26T14:46:51.374Z,9592.00
2018-03-26T14:47:51.439Z,9596.00
2018-03-26T14:48:51.418Z,9568.00
2018-03-26T14:49:51.469Z,9568.00
2018-03-26T14:50:51.456Z,9548.00
2018-03-26T14:51:51.483Z,9456.00
2018-03-26T14:52:51.500Z,9412.00
2018-03-26T14:53:51.578Z,9428.00
2018-03-26T14:54:51.546Z,8408.00
2018-03-26T14:55:51.578Z,9280.00
2018-03-26T14:56:51.590Z,9300.00
2018-03-26T14:57:51.621Z,8964.00
2018-03-26T14:58:51.468Z,9244.00
2018-03-26T14:59:51.791Z,9160.00
2018-03-26T15:00:51.686Z,9204.00
2018-03-26T15:01:51.709Z,9216.00
2018-03-26T15:02:51.749Z,9208.00
2018-03-26T15:03:51.754Z,9208.00
2018-03-26T15:04:51.785Z,9176.00
2018-03-26T15:05:51.863Z,9064.00
2018-03-26T15:06:51.826Z,9088.00
2018-03-26T15:07:51.849Z,9096.00
2018-03-26T15:08:51.872Z,9060.00
2018-03-26T15:09:51.893Z,9032.00
2018-03-26T15:10:51.918Z,9012.00
2018-03-26T15:11:51.998Z,8972.00
2018-03-26T15:12:51.975Z,8896.00
2018-03-26T15:13:51.985Z,8824.00
2018-03-26T15:14:52.007Z,8960.00
2018-03-26T15:15:52.034Z,8956.00
2018-03-26T15:16:52.051Z,8756.00
2018-03-26T15:17:52.164Z,8712.00
2018-03-26T15:18:52.168Z,8652.00
2018-03-26T15:19:52.125Z,8604.00
2018-03-26T15:20:52.152Z,8568.00
2018-03-26T15:21:52.162Z,8800.00
2018-03-26T15:22:52.186Z,8656.00
2018-03-26T15:23:52.260Z,8616.00
2018-03-26T15:24:52.234Z,8556.00
2018-03-26T15:25:52.263Z,8472.00
2018-03-26T15:26:52.276Z,8508.00
2018-03-26T15:27:52.298Z,8424.00
2018-03-26T15:28:52.324Z,8192.00
2018-03-26T15:29:52.200Z,8488.00
2018-03-26T15:30:52.370Z,8452.00
2018-03-26T15:31:52.478Z,8540.00
2018-03-26T15:32:52.410Z,8504.00
2018-03-26T15:33:52.449Z,8484.00
2018-03-26T15:34:52.517Z,8356.00
2018-03-26T15:35:52.475Z,8236.00
2018-03-26T15:36:52.507Z,8092.00
2018-03-26T15:37:52.557Z,7884.00
2018-03-26T15:38:52.622Z,7708.00
2018-03-26T15:39:52.584Z,7676.00
2018-03-26T15:40:52.638Z,7824.00
2018-03-26T15:41:52.611Z,7848.00
2018-03-26T15:42:52.632Z,7952.00
2018-03-26T15:43:52.664Z,7908.00
2018-03-26T15:44:52.676Z,7820.00
2018-03-26T15:45:52.700Z,7796.00
2018-03-26T15:46:52.773Z,7800.00
2018-03-26T15:47:52.746Z,7748.00
2018-03-26T15:48:52.778Z,7636.00
2018-03-26T15:49:52.789Z,7540.00
2018-03-26T15:50:52.825Z,7504.00
2018-03-26T15:51:52.843Z,7472.00
2018-03-26T15:52:52.907Z,7316.00
2018-03-26T15:53:52.879Z,7196.00
2018-03-26T15:54:52.902Z,7076.00
2018-03-26T15:55:52.929Z,7156.00
2018-03-26T15:56:52.951Z,7044.00
2018-03-26T15:57:52.966Z,7080.00
2018-03-26T15:58:53.051Z,6832.00
2018-03-26T15:59:53.012Z,6684.00
2018-03-26T16:00:52.841Z,6500.00
2018-03-26T16:01:53.058Z,6408.00
2018-03-26T16:02:53.078Z,6256.00
2018-03-26T16:03:53.102Z,6308.00
2018-03-26T16:04:53.188Z,6136.00
2018-03-26T16:05:53.144Z,6252.00
2018-03-26T16:06:53.187Z,6476.00
2018-03-26T16:07:53.186Z,6532.00
2018-03-26T16:08:53.209Z,6308.00
2018-03-26T16:09:53.234Z,6288.00
2018-03-26T16:10:53.305Z,6372.00
2018-03-26T16:11:53.274Z,6380.00
2018-03-26T16:12:53.300Z,6424.00
2018-03-26T16:13:53.319Z,6392.00
2018-03-26T16:14:53.352Z,6312.00
2018-03-26T16:15:53.359Z,6248.00
2018-03-26T16:16:53.449Z,6104.00
2018-03-26T16:17:53.408Z,6144.00
2018-03-26T16:18:53.445Z,6080.00
2018-03-26T16:19:53.448Z,5912.00
2018-03-26T16:20:53.480Z,5928.00
2018-03-26T16:21:53.495Z,5920.00
2018-03-26T16:22:53.579Z,5784.00
2018-03-26T16:23:53.543Z,5848.00
2018-03-26T16:24:53.562Z,5768.00
2018-03-26T16:25:53.586Z,5720.00
2018-03-26T16:26:53.679Z,5564.00
2018-03-26T16:27:53.644Z,5516.00
2018-03-26T16:28:53.711Z,5092.00
2018-03-26T16:29:53.684Z,5192.00
2018-03-26T16:30:53.692Z,4816.00
2018-03-26T16:31:53.724Z,5072.00
2018-03-26T16:32:53.731Z,5012.00
2018-03-26T16:33:53.765Z,4932.00
2018-03-26T16:34:53.833Z,4904.00
2018-03-26T16:35:53.809Z,4780.00
2018-03-26T16:36:53.824Z,4792.00
2018-03-26T16:37:53.842Z,4740.00
2018-03-26T16:38:53.868Z,4592.00
2018-03-26T16:39:53.887Z,4288.00
2018-03-26T16:40:53.960Z,4260.00
2018-03-26T16:41:53.929Z,4448.00
2018-03-26T16:42:53.949Z,4332.00
2018-03-26T16:43:53.982Z,4220.00
2018-03-26T16:44:53.991Z,4368.00
2018-03-26T16:45:54.069Z,4240.00
2018-03-26T16:46:54.097Z,4356.00
2018-03-26T16:47:54.054Z,4312.00
2018-03-26T16:48:54.089Z,4280.00
2018-03-26T16:49:54.096Z,4164.00
2018-03-26T16:50:54.121Z,4040.00
2018-03-26T16:51:54.151Z,4132.00
2018-03-26T16:52:54.213Z,4012.00
2018-03-26T16:53:54.182Z,3924.00
2018-03-26T16:54:54.207Z,3872.00
2018-03-26T16:55:54.233Z,3832.00
2018-03-26T16:56:54.252Z,3760.00
2018-03-26T16:57:54.302Z,3732.00
2018-03-26T16:58:54.348Z,3636.00
2018-03-26T16:59:54.306Z,3644.00
2018-03-26T17:00:54.327Z,3640.00
2018-03-26T17:01:54.353Z,3572.00
2018-03-26T17:02:54.176Z,3596.00
2018-03-26T17:03:54.389Z,3520.00
2018-03-26T17:04:54.462Z,3456.00
2018-03-26T17:05:54.427Z,3488.00
2018-03-26T17:06:54.455Z,3440.00
2018-03-26T17:07:54.479Z,3420.00
2018-03-26T17:08:54.492Z,3348.00
2018-03-26T17:09:54.511Z,3276.00
2018-03-26T17:10:54.464Z,2828.00
2018-03-26T17:11:54.555Z,3312.00
2018-03-26T17:12:54.585Z,3424.00
2018-03-26T17:13:54.606Z,3320.00
2018-03-26T17:14:54.619Z,3276.00
2018-03-26T17:15:54.636Z,3260.00
2018-03-26T17:16:54.766Z,3228.00
2018-03-26T17:17:54.679Z,3188.00
2018-03-26T17:18:54.708Z,3200.00
2018-03-26T17:19:54.718Z,3152.00
2018-03-26T17:20:54.744Z,3112.00
2018-03-26T17:21:54.758Z,3084.00
2018-03-26T17:22:54.837Z,3024.00
2018-03-26T17:23:54.802Z,2980.00
2018-03-26T17:24:54.830Z,2904.00
2018-03-26T17:25:54.852Z,2716.00
2018-03-26T17:26:54.864Z,2716.00
2018-03-26T17:27:54.880Z,2648.00
2018-03-26T17:28:54.971Z,2664.00
2018-03-26T17:29:54.926Z,2552.00
2018-03-26T17:30:54.948Z,2584.00
2018-03-26T17:31:54.963Z,2524.00
2018-03-26T17:32:54.983Z,2460.00
2018-03-26T17:33:55.002Z,2400.00
2018-03-26T17:34:55.073Z,2348.00
2018-03-26T17:35:55.049Z,2296.00
2018-03-26T17:36:55.074Z,2240.00
2018-03-26T17:37:55.095Z,2184.00
2018-03-26T17:38:55.104Z,2140.00
2018-03-26T17:39:55.129Z,2100.00
2018-03-26T17:40:55.207Z,2056.00
2018-03-26T17:41:54.964Z,2008.00
2018-03-26T17:42:55.185Z,1968.00
2018-03-26T17:43:55.206Z,1920.00
2018-03-26T17:44:55.225Z,1880.00
2018-03-26T17:45:55.259Z,1836.00
2018-03-26T17:46:55.331Z,1800.00
2018-03-26T17:47:55.317Z,1764.00
2018-03-26T17:48:55.308Z,1740.00
2018-03-26T17:49:55.328Z,1712.00
2018-03-26T17:50:55.347Z,1668.00
2018-03-26T17:51:55.368Z,1612.00
2018-03-26T17:52:55.467Z,1564.00
2018-03-26T17:53:55.436Z,1524.00
2018-03-26T17:54:55.441Z,1472.00
2018-03-26T17:55:55.446Z,1440.00
2018-03-26T17:56:55.466Z,1388.00
2018-03-26T17:57:55.497Z,1348.00
2018-03-26T17:58:55.567Z,1300.00
2018-03-26T17:59:55.530Z,1260.00
2018-03-26T18:00:55.546Z,1220.00
2018-03-26T18:01:55.566Z,1184.00
2018-03-26T18:02:55.586Z,1156.00
2018-03-26T18:03:55.602Z,1116.00
2018-03-26T18:04:55.682Z,1068.00
2018-03-26T18:05:55.643Z,1028.00
2018-03-26T18:06:55.676Z,992.00
2018-03-26T18:07:55.693Z,960.00
2018-03-26T18:08:55.699Z,936.00
2018-03-26T18:09:55.777Z,912.00
2018-03-26T18:10:55.744Z,884.00
2018-03-26T18:11:55.762Z,856.00
2018-03-26T18:12:55.830Z,840.00
2018-03-26T18:13:55.800Z,816.00
2018-03-26T18:14:55.616Z,792.00
2018-03-26T18:15:55.937Z,772.00
2018-03-26T18:16:55.856Z,752.00
2018-03-26T18:17:55.884Z,728.00
2018-03-26T18:18:55.910Z,704.00
2018-03-26T18:19:55.915Z,684.00
2018-03-26T18:20:55.946Z,664.00
2018-03-26T18:21:56.008Z,640.00
2018-03-26T18:22:55.973Z,624.00
2018-03-26T18:23:56.025Z,600.00
2018-03-26T18:24:56.088Z,584.00
2018-03-26T18:25:56.032Z,560.00
2018-03-26T18:26:56.103Z,540.00
2018-03-26T18:27:56.072Z,520.00
2018-03-26T18:28:56.095Z,504.00
2018-03-26T18:29:56.109Z,484.00
2018-03-26T18:30:56.160Z,464.00
2018-03-26T18:31:56.147Z,448.00
2018-03-26T18:32:56.220Z,424.00
2018-03-26T18:33:56.189Z,408.00
2018-03-26T18:34:56.217Z,392.00
2018-03-26T18:35:56.233Z,376.00
2018-03-26T18:36:56.302Z,356.00
2018-03-26T18:37:56.272Z,340.00
2018-03-26T18:38:56.342Z,316.00
2018-03-26T18:39:56.300Z,296.00
2018-03-26T18:40:56.321Z,276.00
2018-03-26T18:41:56.340Z,260.00
2018-03-26T18:42:56.368Z,244.00
2018-03-26T18:43:56.377Z,224.00
2018-03-26T18:44:56.445Z,208.00
2018-03-26T18:45:56.428Z,196.00
2018-03-26T18:46:56.445Z,180.00
2018-03-26T18:47:56.459Z,164.00
2018-03-26T18:48:56.475Z,152.00
2018-03-26T18:49:56.497Z,136.00
2018-03-26T18:50:56.563Z,124.00
2018-03-26T18:51:56.529Z,112.00
2018-03-26T18:52:56.549Z,100.00
2018-03-26T18:53:56.373Z,88.00
2018-03-26T18:54:56.598Z,76.00
2018-03-26T18:55:56.404Z,72.00
2018-03-26T18:56:56.751Z,60.00
2018-03-26T18:57:56.642Z,52.00
2018-03-26T18:58:56.673Z,44.00
2018-03-26T18:59:56.678Z,40.00
2018-03-26T19:00:56.710Z,36.00
2018-03-26T19:01:56.802Z,28.00
2018-03-26T19:02:56.787Z,24.00
2018-03-26T19:03:56.765Z,24.00
2018-03-26T19:04:56.776Z,16.00
2018-03-26T19:05:56.805Z,12.00
2018-03-26T19:06:56.820Z,12.00
2018-03-26T19:07:56.829Z,12.00
2018-03-26T19:08:56.907Z,8.00
2018-03-26T19:09:56.878Z,8.00
2018-03-26T19:10:56.888Z,8.00
2018-03-26T19:11:56.905Z,8.00
2018-03-26T19:12:56.928Z,8.00
2018-03-26T19:13:56.945Z,4.00
2018-03-26T19:14:57.024Z,4.00
2018-03-26T19:15:56.986Z,4.00
2018-03-26T19:16:57.001Z,4.00
2018-03-26T19:17:57.025Z,4.00
2018-03-26T19:18:57.038Z,4.00
2018-03-26T19:19:57.057Z,4.00
2018-03-26T19:20:57.136Z,0.00
2018-03-26T19:21:57.094Z,0.00
2018-03-26T19:22:57.110Z,0.00
2018-03-26T19:23:57.139Z,0.00
2018-03-26T19:24:57.147Z,0.00
2018-03-26T19:25:57.166Z,4.00
2018-03-26T19:26:57.297Z,4.00
2018-03-26T19:27:57.200Z,4.00
2018-03-26T19:28:57.019Z,4.00
2018-03-26T19:29:57.238Z,4.00
2018-03-26T19:30:57.272Z,4.00
2018-03-26T19:31:57.278Z,4.00
2018-03-26T19:32:57.358Z,4.00
2018-03-26T19:33:57.315Z,4.00
2018-03-26T19:34:57.333Z,4.00
2018-03-26T19:35:57.363Z,4.00
2018-03-26T19:36:57.380Z,4.00
2018-03-26T19:37:57.398Z,4.00
2018-03-26T19:38:57.459Z,4.00
2018-03-26T19:39:57.426Z,4.00
2018-03-26T19:40:57.442Z,4.00
2018-03-26T19:41:57.460Z,4.00
2018-03-26T19:42:57.480Z,4.00
2018-03-26T19:43:57.499Z,4.00
2018-03-26T19:44:57.564Z,4.00
2018-03-26T19:45:57.536Z,4.00
2018-03-26T19:46:57.565Z,4.00
2018-03-26T19:47:57.569Z,4.00
2018-03-26T19:48:57.590Z,4.00
2018-03-26T19:49:57.622Z,4.00
2018-03-26T19:50:57.685Z,4.00
2018-03-26T19:51:57.661Z,4.00
2018-03-26T19:52:57.663Z,4.00
2018-03-26T19:53:57.682Z,4.00
2018-03-26T19:54:57.704Z,4.00
2018-03-26T19:55:57.716Z,4.00
2018-03-26T19:56:57.798Z,4.00
2018-03-26T19:57:57.793Z,4.00
2018-03-26T19:58:57.773Z,4.00
2018-03-26T19:59:57.793Z,4.00
2018-03-26T20:00:57.815Z,4.00
2018-03-26T20:01:57.838Z,4.00
2018-03-26T20:02:57.897Z,4.00
2018-03-26T20:03:57.880Z,4.00
2018-03-26T20:04:57.883Z,4.00
2018-03-26T20:05:57.910Z,4.00
2018-03-26T20:06:57.922Z,4.00
2018-03-26T20:07:57.940Z,4.00
2018-03-26T20:08:58.009Z,4.00
2018-03-26T20:09:57.987Z,4.00
2018-03-26T20:10:57.994Z,4.00
2018-03-26T20:11:58.024Z,4.00
2018-03-26T20:12:58.033Z,4.00
2018-03-26T20:13:58.060Z,4.00
2018-03-26T20:14:58.130Z,4.00
2018-03-26T20:15:58.086Z,4.00
2018-03-26T20:16:58.115Z,4.00
2018-03-26T20:17:58.123Z,4.00
2018-03-26T20:18:58.153Z,4.00
2018-03-26T20:19:58.160Z,4.00
2018-03-26T20:20:58.238Z,4.00
2018-03-26T20:21:58.196Z,4.00
2018-03-26T20:22:58.215Z,4.00
2018-03-26T20:23:58.247Z,4.00
2018-03-26T20:24:58.250Z,4.00
2018-03-26T20:25:58.270Z,4.00
2018-03-26T20:26:58.348Z,4.00
2018-03-26T20:27:58.346Z,4.00
2018-03-26T20:28:58.322Z,4.00
2018-03-26T20:29:58.352Z,4.00
2018-03-26T20:30:58.360Z,4.00
2018-03-26T20:31:58.379Z,4.00
2018-03-26T20:32:58.448Z,4.00
2018-03-26T20:33:58.424Z,4.00
2018-03-26T20:34:58.431Z,4.00
2018-03-26T20:35:58.451Z,4.00
2018-03-26T20:36:58.273Z,4.00
2018-03-26T20:37:58.488Z,4.00
2018-03-26T20:38:58.554Z,4.00
2018-03-26T20:39:58.525Z,4.00
2018-03-26T20:40:58.539Z,4.00
2018-03-26T20:41:58.561Z,4.00
2018-03-26T20:42:58.576Z,4.00
2018-03-26T20:43:58.643Z,4.00
2018-03-26T20:44:58.480Z,4.00
2018-03-26T20:45:58.632Z,4.00
2018-03-26T20:46:58.647Z,4.00
2018-03-26T20:47:58.666Z,4.00
2018-03-26T20:48:58.682Z,4.00
2018-03-26T20:49:58.703Z,4.00
2018-03-26T20:50:58.778Z,4.00
2018-03-26T20:51:58.737Z,4.00
2018-03-26T20:52:58.752Z,4.00
2018-03-26T20:53:58.770Z,4.00
2018-03-26T20:54:58.790Z,4.00
2018-03-26T20:55:58.808Z,4.00
2018-03-26T20:56:58.877Z,4.00
2018-03-26T20:57:58.842Z,4.00
2018-03-26T20:58:58.885Z,4.00
2018-03-26T20:59:58.881Z,4.00
2018-03-26T21:00:58.897Z,4.00
2018-03-26T21:01:58.919Z,4.00
2018-03-26T21:02:58.984Z,4.00
2018-03-26T21:03:58.960Z,4.00
2018-03-26T21:04:58.972Z,4.00
2018-03-26T21:05:58.989Z,4.00
2018-03-26T21:06:59.009Z,4.00
2018-03-26T21:07:59.027Z,4.00
2018-03-26T21:08:59.095Z,4.00
2018-03-26T21:09:59.077Z,4.00
2018-03-26T21:10:59.078Z,4.00
2018-03-26T21:11:59.097Z,4.00
2018-03-26T21:12:59.127Z,4.00
2018-03-26T21:13:59.146Z,4.00
2018-03-26T21:14:59.239Z,4.00
2018-03-26T21:15:59.167Z,4.00
2018-03-26T21:16:59.185Z,4.00
2018-03-26T21:17:59.010Z,4.00
2018-03-26T21:18:59.232Z,4.00
2018-03-26T21:19:59.261Z,4.00
2018-03-26T21:20:59.313Z,4.00
2018-03-26T21:21:59.288Z,4.00
2018-03-26T21:22:59.312Z,4.00
2018-03-26T21:23:59.328Z,4.00
2018-03-26T21:24:59.336Z,4.00
2018-03-26T21:25:59.352Z,4.00
2018-03-26T21:26:59.444Z,4.00
2018-03-26T21:28:59.413Z,4.00
2018-03-26T21:29:59.421Z,4.00
2018-03-26T21:30:59.449Z,4.00
2018-03-26T21:31:59.469Z,4.00
2018-03-26T21:32:59.527Z,4.00
2018-03-26T21:33:59.502Z,4.00
2018-03-26T21:34:59.527Z,4.00
2018-03-26T21:35:59.542Z,4.00
2018-03-26T21:36:59.548Z,4.00
2018-03-26T21:37:59.573Z,4.00
2018-03-26T21:38:59.643Z,4.00
2018-03-26T21:39:59.609Z,4.00
2018-03-26T21:40:59.619Z,4.00
2018-03-26T21:41:59.703Z,4.00
2018-03-26T21:42:59.654Z,4.00
2018-03-26T21:43:59.674Z,4.00
2018-03-26T21:44:59.775Z,4.00
2018-03-26T21:45:59.708Z,4.00
2018-03-26T21:46:59.736Z,4.00
2018-03-26T21:47:59.750Z,4.00
2018-03-26T21:48:59.820Z,4.00
2018-03-26T21:49:59.781Z,4.00
2018-03-26T21:50:59.849Z,4.00
2018-03-26T21:51:59.818Z,4.00
2018-03-26T21:52:59.637Z,4.00
2018-03-26T21:53:59.849Z,4.00
2018-03-26T21:54:59.895Z,4.00
2018-03-26T21:55:59.885Z,4.00
2018-03-26T21:56:59.956Z,4.00